Terminal Aerodrome Forecast
Issued by NWS Tuscon, AZ

Home | Current Version | Previous Version | Text Only | Print | Product List | Glossary On
Versions: 1 2 3 4 5 6 7 8 9 10 11 12
000
FTUS45 KTWC 042320
TAFDUG
TAF
KDUG 042320Z 0500/0524 32009KT P6SM SCT090 SCT150
     FM050300 36007KT P6SM FEW090 SCT250
     FM051000 VRB04KT P6SM SCT250
     FM051900 34008KT P6SM SCT090 SCT150=

USA.gov is the U.S. government's official web portal to all federal, state and local government web resources and services.